Wink, Texas
Current Conditions -  °F | °C
As of 9:53 PM on Wednesday 26 Nov 2014 (Local Time) from KINK Reporting Station
Clear Clear  
Wind Chill: 44°   Ceiling: Unl
Heat Index: 47°   Visibility: 10mi
Dew Point: 25°   Wind: 6mph
Humidity: 42%   Direction: 70°ENE
Pressure: 30.31"   Gusts: NA
Location:  31.75°N, 103.16°W
Report Text: KINK 270353Z AUTO 07005KT 10SM CLR 08/M04 A3031 RMK AO2 SLP249 T00831039
Loading
Personal Weather Stations






























Interactive Weather Map New forecast layout! Learn more

10-Day Weather Forecast

Advertisements
Track Severe Weather on mobile